Time;durP1;ratioP1;P1;durP2;ratioP2;P2;SDS_P1;SDS_P2;PMS_P1;PMS_P2;Temp;Humidity;BMP_temperature;BMP_pressure;BME280_temperature;BME280_humidity;BME280_pressure;Samples;Min_cycle;Max_cycle;Signal;HPM_P1;HPM_P2
2024/03/11 00:00:45;;;;;;;25.60;11.40;;;;;;;6.65;55.39;101339.86;107571;1251;107291;-68
2024/03/11 00:03:34;;;;;;;18.40;10.70;;;;;;;6.72;55.07;101341.41;107561;1251;109707;-68
2024/03/11 00:06:03;;;;;;;26.00;10.60;;;;;;;6.80;54.74;101336.23;107492;1250;97828;-67
2024/03/11 00:08:32;;;;;;;25.50;10.90;;;;;;;6.84;55.55;101337.21;107600;1251;97743;-66
2024/03/11 00:11:01;;;;;;;27.80;13.90;;;;;;;6.83;55.86;101335.34;107648;1250;113000;-66
2024/03/11 00:13:33;;;;;;;34.40;13.70;;;;;;;6.81;55.73;101339.23;107479;1250;108103;-66
2024/03/11 00:16:03;;;;;;;24.60;11.60;;;;;;;6.77;55.99;101345.72;107468;1250;108210;-66
2024/03/11 00:18:32;;;;;;;27.40;11.20;;;;;;;6.75;55.96;101348.51;107795;1248;97880;-68
2024/03/11 00:21:00;;;;;;;26.10;10.40;;;;;;;6.72;55.91;101343.90;107589;1250;98360;-68
2024/03/11 00:23:29;;;;;;;19.70;10.30;;;;;;;6.70;56.01;101346.36;107672;1250;111774;-67
2024/03/11 00:25:57;;;;;;;19.50;10.50;;;;;;;6.66;55.66;101350.13;107593;1251;108074;-69
2024/03/11 00:28:27;;;;;;;23.50;10.40;;;;;;;6.64;55.87;101343.67;107543;1251;108529;-71
2024/03/11 00:30:56;;;;;;;22.80;10.90;;;;;;;6.66;56.39;101342.33;107603;1250;97829;-71
2024/03/11 00:33:26;;;;;;;20.90;11.30;;;;;;;6.64;55.77;101340.45;107476;1251;97822;-71
2024/03/11 00:35:55;;;;;;;21.60;10.40;;;;;;;6.65;56.30;101341.13;107555;1251;111185;-68
2024/03/11 00:38:23;;;;;;;19.40;10.80;;;;;;;6.69;56.09;101343.52;107596;1253;107574;-68
2024/03/11 00:40:52;;;;;;;21.90;10.70;;;;;;;6.69;56.03;101349.60;107612;1254;107629;-67
2024/03/11 00:43:21;;;;;;;28.20;11.30;;;;;;;6.68;56.03;101347.70;107548;1250;97968;-67
2024/03/11 00:45:50;;;;;;;21.30;9.70;;;;;;;6.64;56.14;101344.96;107543;1251;97862;-66
2024/03/11 00:48:20;;;;;;;18.80;10.80;;;;;;;6.60;56.14;101349.42;107514;1253;111771;-66
2024/03/11 00:50:49;;;;;;;21.20;10.20;;;;;;;6.55;56.28;101344.41;107488;1253;108000;-67
2024/03/11 00:53:18;;;;;;;21.80;11.00;;;;;;;6.50;56.26;101342.20;107613;1251;108298;-68
2024/03/11 00:55:46;;;;;;;17.20;10.10;;;;;;;6.45;56.74;101340.41;107520;1250;97854;-68
2024/03/11 00:58:17;;;;;;;18.40;10.50;;;;;;;6.42;56.36;101338.25;107467;1253;98329;-67
2024/03/11 01:00:45;;;;;;;24.00;10.50;;;;;;;6.42;56.97;101340.39;107579;1250;111261;-68
2024/03/11 01:03:14;;;;;;;20.60;10.60;;;;;;;6.41;56.69;101340.60;107577;1256;108268;-66
2024/03/11 01:05:43;;;;;;;25.90;10.20;;;;;;;6.45;56.78;101341.30;107597;1251;108233;-66
2024/03/11 01:08:12;;;;;;;20.90;10.70;;;;;;;6.46;56.51;101342.47;107532;1253;97879;-67
2024/03/11 01:10:40;;;;;;;23.20;10.60;;;;;;;6.46;56.74;101346.41;107631;1254;98459;-67
2024/03/11 01:13:09;;;;;;;31.40;12.60;;;;;;;6.41;56.79;101340.12;107620;1253;111732;-67
2024/03/11 01:15:37;;;;;;;26.60;11.50;;;;;;;6.37;56.70;101340.67;107558;1250;107767;-67
2024/03/11 01:18:06;;;;;;;28.50;12.50;;;;;;;6.40;56.54;101335.73;107532;1253;108540;-66
2024/03/11 01:20:37;;;;;;;25.90;12.20;;;;;;;6.40;56.73;101333.95;107592;1253;97928;-66
2024/03/11 01:23:05;;;;;;;24.50;10.90;;;;;;;6.39;56.63;101345.73;107633;1251;97832;-65
2024/03/11 01:25:34;;;;;;;21.80;11.50;;;;;;;6.37;56.71;101351.92;107572;1251;111417;-66
2024/03/11 01:28:10;;;;;;;24.60;11.20;;;;;;;6.36;56.17;101352.74;107604;1256;107907;-67
2024/03/11 01:30:39;;;;;;;22.70;11.60;;;;;;;6.35;56.64;101351.50;107624;1254;108989;-68
2024/03/11 01:33:07;;;;;;;29.40;12.00;;;;;;;6.34;56.50;101355.52;107570;1250;97806;-69
2024/03/11 01:35:37;;;;;;;20.90;11.10;;;;;;;6.36;56.45;101357.91;107589;1252;98428;-72
2024/03/11 01:38:06;;;;;;;23.60;10.70;;;;;;;6.35;57.14;101353.65;107500;1251;111216;-68
2024/03/11 01:40:35;;;;;;;20.30;11.40;;;;;;;6.35;57.07;101355.26;107619;1251;107645;-69
2024/03/11 01:43:03;;;;;;;22.00;10.50;;;;;;;6.36;57.20;101354.52;107583;1251;106674;-68
2024/03/11 01:45:32;;;;;;;28.00;12.50;;;;;;;6.37;57.34;101354.81;107626;1253;97895;-68
2024/03/11 01:48:03;;;;;;;23.50;10.60;;;;;;;6.37;57.17;101357.77;107654;1251;98360;-68
2024/03/11 01:50:32;;;;;;;16.20;10.30;;;;;;;6.38;57.21;101362.70;107441;1253;111282;-68
2024/03/11 01:53:03;;;;;;;20.50;10.70;;;;;;;6.40;57.24;101360.10;107557;1251;107285;-66
2024/03/11 01:55:37;;;;;;;17.30;9.80;;;;;;;6.38;57.37;101360.75;107540;1253;106287;-66
2024/03/11 01:58:09;;;;;;;20.20;9.90;;;;;;;6.33;57.66;101360.73;107600;1253;97864;-67
2024/03/11 02:00:41;;;;;;;22.10;10.90;;;;;;;6.30;57.36;101369.98;107618;1253;97813;-65
2024/03/11 02:03:10;;;;;;;21.40;10.80;;;;;;;6.30;57.09;101370.72;107543;1255;112144;-66
2024/03/11 02:05:41;;;;;;;22.30;11.00;;;;;;;6.28;57.76;101369.23;107622;1251;108613;-67
2024/03/11 02:08:10;;;;;;;19.60;10.80;;;;;;;6.24;57.52;101370.33;107608;1251;108058;-69
2024/03/11 02:10:39;;;;;;;24.60;11.10;;;;;;;6.23;57.72;101369.30;107482;1256;97915;-69
2024/03/11 02:13:09;;;;;;;19.50;10.70;;;;;;;6.26;58.01;101368.80;107646;1251;97829;-69
2024/03/11 02:15:38;;;;;;;20.30;9.90;;;;;;;6.31;57.69;101371.88;107591;1256;110718;-69
2024/03/11 02:18:07;;;;;;;18.20;10.50;;;;;;;6.37;57.53;101374.17;107534;1251;107651;-68
2024/03/11 02:20:40;;;;;;;19.40;10.10;;;;;;;6.44;58.37;101370.77;107457;1254;107820;-68
2024/03/11 02:23:09;;;;;;;27.60;10.20;;;;;;;6.43;58.06;101372.05;107536;1251;97841;-68
2024/03/11 02:25:38;;;;;;;21.30;10.20;;;;;;;6.41;58.27;101375.90;107489;1254;97832;-67
2024/03/11 02:28:06;;;;;;;19.70;10.40;;;;;;;6.37;58.29;101372.61;107520;1250;111386;-66
2024/03/11 02:30:35;;;;;;;22.70;11.40;;;;;;;6.34;58.31;101373.48;107553;1251;107632;-67
2024/03/11 02:33:05;;;;;;;24.60;11.00;;;;;;;6.28;58.73;101379.02;107594;1251;108409;-67
2024/03/11 02:35:34;;;;;;;25.90;10.90;;;;;;;6.23;58.77;101381.95;107543;1254;97714;-66
2024/03/11 02:38:04;;;;;;;21.40;11.80;;;;;;;6.20;58.71;101384.68;107518;1251;97720;-66
2024/03/11 02:40:37;;;;;;;23.90;11.70;;;;;;;6.15;59.78;101385.89;107522;1253;110107;-67
2024/03/11 02:43:06;;;;;;;21.90;10.20;;;;;;;6.11;59.69;101386.27;107472;1250;108663;-68
2024/03/11 02:45:35;;;;;;;19.30;10.70;;;;;;;6.11;59.13;101392.33;107504;1256;106588;-71
2024/03/11 02:48:04;;;;;;;18.60;10.50;;;;;;;6.13;59.25;101393.48;107524;1255;97816;-67
2024/03/11 02:50:32;;;;;;;21.10;10.40;;;;;;;6.18;59.07;101395.67;107520;1251;98386;-67
2024/03/11 02:53:01;;;;;;;19.50;10.80;;;;;;;6.22;59.25;101402.52;107556;1255;110451;-70
2024/03/11 02:55:29;;;;;;;20.10;10.80;;;;;;;6.26;59.25;101402.67;107491;1254;109105;-68
2024/03/11 02:57:58;;;;;;;21.40;10.90;;;;;;;6.33;59.69;101402.08;107545;1257;106650;-69
2024/03/11 03:00:26;;;;;;;20.30;10.70;;;;;;;6.39;59.80;101399.02;107502;1250;97845;-68
2024/03/11 03:02:55;;;;;;;28.20;10.90;;;;;;;6.41;59.84;101402.80;107528;1253;98074;-67
2024/03/11 03:05:23;;;;;;;21.70;11.10;;;;;;;6.42;60.25;101405.60;107550;1250;110699;-67
2024/03/11 03:07:52;;;;;;;28.90;12.10;;;;;;;6.41;60.63;101406.20;107574;1254;108082;-67
2024/03/11 03:10:20;;;;;;;23.50;12.20;;;;;;;6.37;60.83;101406.45;107674;1254;107758;-67
2024/03/11 03:12:49;;;;;;;30.80;11.70;;;;;;;6.31;60.91;101407.21;107600;1254;97908;-65
2024/03/11 03:15:18;;;;;;;22.30;12.30;;;;;;;6.25;61.08;101407.65;107569;1256;97823;-66
2024/03/11 03:17:46;;;;;;;23.90;11.80;;;;;;;6.22;61.86;101409.49;107464;1251;110682;-66
2024/03/11 03:20:18;;;;;;;22.70;11.30;;;;;;;6.15;62.27;101416.64;107481;1253;109012;-73
2024/03/11 03:22:46;;;;;;;22.30;11.90;;;;;;;6.10;62.48;101415.86;107595;1254;108445;-70
2024/03/11 03:25:15;;;;;;;22.00;11.40;;;;;;;6.06;62.99;101416.27;107552;1249;97894;-70
2024/03/11 03:27:43;;;;;;;24.90;11.80;;;;;;;6.04;63.15;101420.72;107486;1251;98434;-69
2024/03/11 03:30:12;;;;;;;25.60;12.00;;;;;;;6.06;62.89;101420.37;107521;1250;111266;-69
2024/03/11 03:32:40;;;;;;;24.30;11.00;;;;;;;6.08;63.21;101425.61;107660;1256;108421;-68
2024/03/11 03:35:09;;;;;;;27.70;13.00;;;;;;;6.13;63.45;101428.17;107475;1253;107380;-68
2024/03/11 03:37:40;;;;;;;20.50;12.30;;;;;;;6.16;63.35;101425.88;107527;1251;97910;-67
2024/03/11 03:40:15;;;;;;;28.60;12.50;;;;;;;6.14;63.85;101426.16;107612;1251;97856;-67
2024/03/11 03:42:47;;;;;;;22.10;11.80;;;;;;;6.15;63.60;101431.63;107456;1251;111714;-67
2024/03/11 03:45:18;;;;;;;28.80;12.00;;;;;;;6.14;63.78;101429.90;107554;1256;107236;-68
2024/03/11 03:47:47;;;;;;;31.60;14.00;;;;;;;6.11;63.65;101430.61;107571;1251;107387;-68
2024/03/11 03:50:17;;;;;;;35.70;14.80;;;;;;;6.06;63.93;101434.29;107526;1251;97992;-65
2024/03/11 03:52:47;;;;;;;31.80;14.20;;;;;;;6.01;63.79;101436.71;107534;1251;97845;-66
2024/03/11 03:55:15;;;;;;;33.30;14.80;;;;;;;5.99;63.79;101442.88;107512;1254;111919;-65
2024/03/11 03:57:44;;;;;;;31.60;13.10;;;;;;;5.97;63.71;101441.92;107548;1251;107776;-67
2024/03/11 04:00:17;;;;;;;27.70;14.10;;;;;;;5.93;64.69;101443.53;107676;1251;107620;-70
2024/03/11 04:02:51;;;;;;;28.30;14.80;;;;;;;5.90;64.12;101447.84;107589;1256;97952;-69
2024/03/11 04:05:21;;;;;;;25.90;12.50;;;;;;;5.90;64.07;101453.00;107576;1255;97848;-72
2024/03/11 04:07:50;;;;;;;22.40;12.50;;;;;;;5.95;64.10;101449.31;107642;1257;111407;-69
2024/03/11 04:10:19;;;;;;;20.90;12.30;;;;;;;5.99;64.08;101451.26;107457;1251;108562;-69
2024/03/11 04:12:50;;;;;;;21.60;12.60;;;;;;;5.99;64.08;101452.33;107510;1250;108571;-68
2024/03/11 04:15:21;;;;;;;25.60;13.10;;;;;;;5.99;64.18;101455.17;107467;1251;98200;-68
2024/03/11 04:17:53;;;;;;;26.00;13.20;;;;;;;5.98;64.09;101458.05;107534;1251;97727;-66
2024/03/11 04:20:27;;;;;;;27.60;14.40;;;;;;;5.96;64.40;101467.06;107573;1251;111758;-66
2024/03/11 04:22:56;;;;;;;26.10;13.00;;;;;;;5.92;64.71;101467.64;107608;1253;108686;-66
2024/03/11 04:25:28;;;;;;;32.20;15.10;;;;;;;5.88;64.90;101472.83;107526;1253;107090;-66
2024/03/11 04:27:59;;;;;;;52.00;20.50;;;;;;;5.84;64.84;101472.58;107482;1251;97832;-66
2024/03/11 04:30:30;;;;;;;39.50;18.00;;;;;;;5.87;65.80;101477.55;107631;1251;98145;-66
2024/03/11 04:32:59;;;;;;;37.70;17.20;;;;;;;5.84;66.12;101480.41;107586;1251;110438;-67
2024/03/11 04:35:30;;;;;;;29.50;15.00;;;;;;;5.84;66.07;101480.56;107570;1256;108381;-69
2024/03/11 04:38:05;;;;;;;30.00;14.60;;;;;;;5.90;66.24;101481.30;107599;1256;107627;-68
2024/03/11 04:40:39;;;;;;;31.90;13.20;;;;;;;6.03;66.15;101478.30;107505;1253;97842;-69
2024/03/11 04:43:08;;;;;;;26.60;13.40;;;;;;;6.08;66.34;101479.77;107508;1253;98513;-69
2024/03/11 04:45:38;;;;;;;27.80;13.20;;;;;;;6.08;66.47;101486.16;107564;1256;110835;-69
2024/03/11 04:48:08;;;;;;;26.10;12.80;;;;;;;6.14;66.32;101491.52;107551;1251;107601;-69
2024/03/11 04:50:38;;;;;;;22.60;12.30;;;;;;;6.21;66.33;101489.89;107575;1251;107132;-67
2024/03/11 04:53:11;;;;;;;24.40;13.00;;;;;;;6.22;66.17;101496.95;107619;1251;97842;-66
2024/03/11 04:55:40;;;;;;;29.00;13.00;;;;;;;6.24;65.93;101501.61;107514;1253;97892;-67
2024/03/11 04:58:09;;;;;;;27.30;13.70;;;;;;;6.29;66.13;101503.48;107519;1251;111614;-65
2024/03/11 05:00:38;;;;;;;23.60;13.00;;;;;;;6.28;66.27;101508.38;107676;1250;107596;-67
2024/03/11 05:03:07;;;;;;;26.50;12.60;;;;;;;6.25;66.31;101512.59;107486;1251;108517;-67
2024/03/11 05:05:36;;;;;;;24.40;12.90;;;;;;;6.21;67.05;101514.47;107503;1256;97824;-67
2024/03/11 05:08:06;;;;;;;25.40;13.00;;;;;;;6.14;67.20;101518.98;107598;1251;97873;-67
2024/03/11 05:10:35;;;;;;;22.30;11.00;;;;;;;6.08;67.40;101525.52;107631;1250;110396;-68
2024/03/11 05:13:05;;;;;;;34.50;11.90;;;;;;;6.09;67.39;101530.29;107562;1251;108187;-69
2024/03/11 05:15:34;;;;;;;30.50;12.90;;;;;;;6.13;68.02;101532.55;107461;1251;106767;-70
2024/03/11 05:18:04;;;;;;;26.60;12.80;;;;;;;6.19;68.00;101535.80;107360;1251;98193;-71
2024/03/11 05:20:33;;;;;;;28.90;13.10;;;;;;;6.23;67.98;101538.19;107634;1251;97714;-71
2024/03/11 05:23:02;;;;;;;26.20;12.70;;;;;;;6.27;68.22;101542.80;107559;1251;111117;-71
2024/03/11 05:25:30;;;;;;;30.40;14.40;;;;;;;6.31;68.46;101542.26;107588;1251;107207;-72
2024/03/11 05:27:59;;;;;;;43.20;14.90;;;;;;;6.31;68.54;101547.02;107568;1255;107617;-68
2024/03/11 05:30:28;;;;;;;30.40;14.40;;;;;;;6.26;68.73;101550.83;107593;1251;97828;-68
2024/03/11 05:32:57;;;;;;;29.50;13.10;;;;;;;6.21;68.99;101552.40;107649;1251;97869;-69
2024/03/11 05:35:25;;;;;;;31.10;12.60;;;;;;;6.18;69.11;101556.64;107512;1251;111632;-67
2024/03/11 05:37:55;;;;;;;35.30;12.70;;;;;;;6.15;69.78;101558.05;107526;1251;108905;-68
2024/03/11 05:40:24;;;;;;;27.70;13.10;;;;;;;6.11;69.81;101558.83;107498;1251;108255;-68
2024/03/11 05:42:54;;;;;;;26.30;12.90;;;;;;;6.13;69.94;101560.88;107416;1251;97697;-68
2024/03/11 05:45:24;;;;;;;26.40;13.00;;;;;;;6.12;70.41;101567.30;107690;1251;98496;-69
2024/03/11 05:47:54;;;;;;;21.60;10.60;;;;;;;6.20;70.51;101574.38;107528;1251;111566;-69
2024/03/11 05:50:24;;;;;;;28.50;11.70;;;;;;;6.28;70.26;101579.83;107507;1251;108666;-69
2024/03/11 05:52:53;;;;;;;25.80;13.00;;;;;;;6.36;70.32;101582.02;107530;1256;108656;-68
2024/03/11 05:55:23;;;;;;;24.30;10.90;;;;;;;6.40;70.38;101581.92;107421;1251;98221;-68
2024/03/11 05:57:51;;;;;;;21.50;12.80;;;;;;;6.45;70.21;101586.80;107388;1251;97737;-68
2024/03/11 06:00:20;;;;;;;38.40;14.10;;;;;;;6.40;70.26;101589.08;107526;1253;111916;-68
2024/03/11 06:02:49;;;;;;;24.80;10.90;;;;;;;6.34;70.32;101592.08;107408;1251;108201;-68
2024/03/11 06:05:19;;;;;;;30.20;12.20;;;;;;;6.32;70.20;101593.44;107372;1250;107428;-71
2024/03/11 06:07:48;;;;;;;35.20;11.90;;;;;;;6.32;70.37;101599.13;107474;1251;97720;-68
2024/03/11 06:10:17;;;;;;;29.20;12.80;;;;;;;6.36;70.69;101599.28;107401;1251;97821;-67
2024/03/11 06:12:46;;;;;;;37.30;11.50;;;;;;;6.45;70.97;101602.69;107602;1251;110690;-68
2024/03/11 06:15:16;;;;;;;39.50;11.40;;;;;;;6.55;70.84;101603.17;107550;1251;108381;-67
2024/03/11 06:17:45;;;;;;;27.60;10.90;;;;;;;6.63;70.80;101608.77;107495;1251;108383;-67
2024/03/11 06:20:15;;;;;;;26.30;10.70;;;;;;;6.73;70.55;101608.20;107434;1253;97838;-67
2024/03/11 06:22:44;;;;;;;20.90;9.70;;;;;;;6.86;70.35;101610.48;107469;1251;97720;-69
2024/03/11 06:25:15;;;;;;;16.70;10.30;;;;;;;6.91;70.08;101606.27;107475;1250;111890;-69
2024/03/11 06:27:43;;;;;;;22.80;10.70;;;;;;;6.87;70.31;101610.41;107622;1251;108531;-68
2024/03/11 06:30:12;;;;;;;25.40;11.50;;;;;;;6.85;70.03;101613.52;107447;1254;107255;-68
2024/03/11 06:32:42;;;;;;;21.80;10.00;;;;;;;6.88;70.32;101609.83;107430;1251;97873;-69
2024/03/11 06:35:13;;;;;;;22.80;10.40;;;;;;;6.87;70.50;101607.68;107410;1254;98438;-68
2024/03/11 06:37:43;;;;;;;18.50;9.80;;;;;;;6.87;70.18;101606.10;107460;1251;112246;-67
2024/03/11 06:40:21;;;;;;;39.60;11.10;;;;;;;6.90;70.02;101603.97;107489;1251;107121;-69
2024/03/11 06:42:52;;;;;;;24.40;10.90;;;;;;;6.96;70.10;101602.90;107437;1250;108066;-67
2024/03/11 06:45:21;;;;;;;25.10;10.10;;;;;;;7.06;70.00;101603.58;107426;1251;97845;-67
2024/03/11 06:47:51;;;;;;;34.20;11.40;;;;;;;7.17;69.60;101603.44;107432;1251;98453;-67
2024/03/11 06:50:20;;;;;;;30.30;9.70;;;;;;;7.24;69.50;101606.24;107452;1253;111035;-67
2024/03/11 06:52:49;;;;;;;36.90;11.90;;;;;;;7.25;69.11;101601.51;107415;1251;107586;-66
2024/03/11 06:55:18;;;;;;;18.20;10.80;;;;;;;7.28;69.21;101605.10;107418;1251;108172;-67
2024/03/11 06:57:46;;;;;;;30.50;11.60;;;;;;;7.28;69.13;101608.33;107523;1254;97847;-67
2024/03/11 07:00:18;;;;;;;28.70;11.50;;;;;;;7.34;69.10;101610.45;107402;1250;97723;-67
2024/03/11 07:02:49;;;;;;;43.40;12.40;;;;;;;7.35;69.14;101610.55;107641;1256;110455;-67
2024/03/11 07:05:26;;;;;;;33.30;11.60;;;;;;;7.38;68.89;101616.96;107550;1251;108534;-67
2024/03/11 07:07:56;;;;;;;38.70;10.80;;;;;;;7.47;68.85;101619.30;107413;1251;107647;-68
2024/03/11 07:10:25;;;;;;;27.10;11.40;;;;;;;7.54;69.00;101620.98;107575;1252;97841;-67
2024/03/11 07:12:54;;;;;;;35.90;13.20;;;;;;;7.61;68.87;101625.75;107512;1251;98447;-67
2024/03/11 07:15:25;;;;;;;27.40;11.50;;;;;;;7.73;68.34;101628.91;107463;1253;111315;-68
2024/03/11 07:17:54;;;;;;;33.60;11.90;;;;;;;7.79;68.24;101628.72;107528;1251;107028;-70
2024/03/11 07:20:26;;;;;;;26.70;11.30;;;;;;;7.82;67.56;101636.02;107631;1251;108436;-68
2024/03/11 07:22:54;;;;;;;36.00;12.10;;;;;;;7.82;67.53;101637.46;107544;1251;97868;-68
2024/03/11 07:25:23;;;;;;;25.40;12.20;;;;;;;7.79;67.30;101638.89;107500;1251;97829;-69
2024/03/11 07:27:52;;;;;;;33.90;13.40;;;;;;;7.70;67.37;101637.10;107574;1251;111407;-68
2024/03/11 07:30:23;;;;;;;26.10;13.10;;;;;;;7.63;67.46;101641.13;107574;1249;108830;-68
2024/03/11 07:33:09;;;;;;;29.90;12.70;;;;;;;7.59;67.24;101645.33;107583;1251;107411;-68
2024/03/11 07:35:44;;;;;;;29.90;14.10;;;;;;;7.50;67.35;101645.14;107594;1249;97845;-69
2024/03/11 07:38:14;;;;;;;41.70;16.90;;;;;;;7.41;67.91;101648.90;107546;1250;96544;-68
2024/03/11 07:40:44;;;;;;;43.50;15.30;;;;;;;7.26;68.55;101654.44;107565;1251;112257;-69
2024/03/11 07:43:15;;;;;;;35.80;14.50;;;;;;;7.24;68.63;101660.68;107625;1251;107341;-71
2024/03/11 07:45:43;;;;;;;28.30;13.90;;;;;;;7.30;68.58;101663.69;107678;1251;108319;-70
2024/03/11 07:48:13;;;;;;;34.40;14.40;;;;;;;7.35;69.06;101662.28;106624;1254;1241075;-70
2024/03/11 07:50:42;;;;;;;38.30;13.80;;;;;;;7.39;69.63;101668.13;107568;1250;97928;-71
2024/03/11 07:53:12;;;;;;;33.00;14.30;;;;;;;7.43;69.65;101667.87;107618;1250;111191;-71
2024/03/11 07:55:42;;;;;;;26.60;13.40;;;;;;;7.42;69.57;101674.22;107695;1251;108625;-71
2024/03/11 07:58:11;;;;;;;23.60;13.00;;;;;;;7.38;69.52;101670.34;107596;1250;106890;-68
2024/03/11 08:00:42;;;;;;;26.40;13.60;;;;;;;7.31;69.90;101665.02;107590;1251;97882;-67
2024/03/11 08:03:10;;;;;;;24.40;13.70;;;;;;;7.21;70.42;101672.40;107594;1251;97724;-68
2024/03/11 08:05:39;;;;;;;25.30;13.40;;;;;;;7.13;71.00;101669.13;107551;1250;111857;-67
2024/03/11 08:08:08;;;;;;;23.10;12.60;;;;;;;7.05;71.21;101664.27;107621;1251;108174;-67
2024/03/11 08:10:37;;;;;;;29.50;13.70;;;;;;;7.05;70.99;101663.73;107580;1251;107981;-68
2024/03/11 08:13:10;;;;;;;23.80;14.40;;;;;;;7.11;71.26;101662.34;107673;1251;97826;-68
2024/03/11 08:15:39;;;;;;;24.60;13.90;;;;;;;7.15;71.55;101661.72;107600;1251;98370;-71
2024/03/11 08:18:09;;;;;;;24.20;13.50;;;;;;;7.19;71.68;101668.60;107617;1251;111357;-70
2024/03/11 08:20:38;;;;;;;22.90;12.10;;;;;;;7.24;71.76;101669.59;107563;1251;107729;-70
2024/03/11 08:23:07;;;;;;;23.80;13.70;;;;;;;7.27;71.90;101670.30;107572;1251;108020;-68
2024/03/11 08:25:36;;;;;;;23.70;13.60;;;;;;;7.29;71.37;101676.40;107593;1251;97834;-69
2024/03/11 08:28:06;;;;;;;31.90;15.10;;;;;;;7.29;71.09;101677.83;107581;1249;97827;-68
2024/03/11 08:30:36;;;;;;;19.90;12.80;;;;;;;7.31;70.96;101681.46;107619;1251;112415;-67
2024/03/11 08:33:05;;;;;;;24.00;13.50;;;;;;;7.29;71.63;101684.59;107535;1251;107933;-69
2024/03/11 08:35:33;;;;;;;25.20;14.00;;;;;;;7.25;71.70;101686.27;107597;1251;108457;-71
2024/03/11 08:38:02;;;;;;;29.40;13.80;;;;;;;7.26;71.58;101691.54;107642;1250;97832;-69
2024/03/11 08:40:30;;;;;;;25.00;13.40;;;;;;;7.30;71.30;101690.64;107583;1254;98344;-68
2024/03/11 08:42:59;;;;;;;23.90;13.50;;;;;;;7.34;71.25;101695.20;107581;1254;111917;-67
2024/03/11 08:45:32;;;;;;;34.20;15.20;;;;;;;7.42;71.69;101699.93;107579;1251;107568;-68
2024/03/11 08:48:00;;;;;;;26.40;14.10;;;;;;;7.47;71.72;101704.91;107581;1251;108387;-68
2024/03/11 08:50:30;;;;;;;32.20;15.70;;;;;;;7.56;71.71;101706.39;107536;1254;97919;-67
2024/03/11 08:53:00;;;;;;;25.70;14.20;;;;;;;7.63;71.99;101703.48;107499;1251;98338;-67
2024/03/11 08:55:29;;;;;;;26.50;13.50;;;;;;;7.67;71.76;101703.16;107522;1250;111823;-68
2024/03/11 08:57:58;;;;;;;26.40;14.10;;;;;;;7.74;72.16;101704.56;107477;1250;108583;-70
2024/03/11 09:00:27;;;;;;;25.50;14.00;;;;;;;7.79;72.10;101704.95;107578;1250;106706;-69
2024/03/11 09:02:56;;;;;;;33.30;14.60;;;;;;;7.82;72.01;101703.53;107426;1251;97861;-69
2024/03/11 09:05:25;;;;;;;23.90;13.50;;;;;;;7.83;72.03;101705.80;107552;1255;97826;-68
2024/03/11 09:07:53;;;;;;;27.00;14.40;;;;;;;7.82;72.07;101709.60;107515;1251;112050;-68
2024/03/11 09:10:22;;;;;;;32.00;15.10;;;;;;;7.84;72.11;101707.70;107466;1253;108446;-68
2024/03/11 09:12:52;;;;;;;32.30;15.50;;;;;;;7.85;72.15;101707.26;107557;1257;106920;-69
2024/03/11 09:15:23;;;;;;;33.60;15.30;;;;;;;7.86;72.14;101704.91;107621;1251;97800;-70
2024/03/11 09:17:54;;;;;;;29.70;14.80;;;;;;;7.82;72.51;101701.91;107552;1251;98085;-70
2024/03/11 09:20:27;;;;;;;31.70;15.10;;;;;;;7.86;73.02;101702.94;107489;1251;111334;-72
2024/03/11 09:22:56;;;;;;;35.80;15.20;;;;;;;7.91;73.10;101703.00;107517;1251;107515;-71
2024/03/11 09:25:26;;;;;;;29.40;15.40;;;;;;;7.94;73.24;101704.41;107546;1250;108632;-68
2024/03/11 09:28:02;;;;;;;32.80;15.30;;;;;;;7.95;72.98;101706.13;107450;1251;97710;-68
2024/03/11 09:30:37;;;;;;;34.10;16.30;;;;;;;7.96;73.44;101708.02;107473;1256;97838;-68
2024/03/11 09:33:11;;;;;;;30.80;15.50;;;;;;;7.94;73.29;101708.55;107487;1251;110153;-69
2024/03/11 09:35:41;;;;;;;28.30;15.00;;;;;;;7.96;73.67;101707.85;107505;1250;108667;-68
2024/03/11 09:38:12;;;;;;;29.00;17.90;;;;;;;7.97;73.35;101708.69;107494;1254;108608;-67
2024/03/11 09:40:41;;;;;;;36.40;17.00;;;;;;;7.96;74.18;101710.19;107455;1254;97924;-68
2024/03/11 09:43:12;;;;;;;28.10;16.40;;;;;;;7.94;74.04;101713.14;107489;1251;97698;-68
2024/03/11 09:45:43;;;;;;;23.60;15.40;;;;;;;7.94;74.34;101714.38;107519;1251;112054;-67
2024/03/11 09:48:12;;;;;;;36.20;17.20;;;;;;;7.94;74.26;101712.41;107591;1250;108635;-67
2024/03/11 09:50:42;;;;;;;26.70;15.70;;;;;;;7.94;74.61;101710.81;107481;1254;107451;-68
2024/03/11 09:53:13;;;;;;;39.70;17.60;;;;;;;7.94;74.49;101713.36;107582;1253;97823;-72
2024/03/11 09:55:44;;;;;;;34.00;15.80;;;;;;;7.92;74.92;101709.33;107576;1250;97911;-74
2024/03/11 09:58:18;;;;;;;32.00;17.10;;;;;;;7.93;75.39;101716.40;107528;1250;111243;-73
2024/03/11 10:00:50;;;;;;;32.70;18.30;;;;;;;7.96;75.48;101716.40;107563;1250;108457;-73
2024/03/11 10:03:24;;;;;;;39.50;20.20;;;;;;;7.98;75.80;101717.38;107514;1250;107292;-74
2024/03/11 10:05:58;;;;;;;36.80;17.20;;;;;;;7.96;75.86;101717.29;107547;1250;97746;-69
2024/03/11 10:08:31;;;;;;;34.40;18.00;;;;;;;7.99;75.99;101722.15;107628;1253;98002;-73
2024/03/11 10:11:15;;;;;;;31.50;17.10;;;;;;;7.98;76.74;101725.02;107585;1249;111892;-72
2024/03/11 10:13:45;;;;;;;30.60;16.30;;;;;;;7.89;76.97;101725.95;107597;1251;107687;-74
2024/03/11 10:16:17;;;;;;;34.20;17.10;;;;;;;7.81;77.20;101730.38;107607;1251;106203;-71
2024/03/11 10:19:02;;;;;;;36.50;19.20;;;;;;;7.80;77.38;101724.16;107550;1251;97926;-72
2024/03/11 10:21:35;;;;;;;31.20;17.30;;;;;;;7.77;77.88;101724.92;107641;1251;97809;-69
2024/03/11 10:24:14;;;;;;;30.80;16.80;;;;;;;7.75;78.37;101731.44;107467;1251;112063;-69
2024/03/11 10:26:45;;;;;;;27.60;16.00;;;;;;;7.80;78.54;101727.77;107602;1255;108250;-71
2024/03/11 10:29:30;;;;;;;26.20;15.20;;;;;;;7.83;78.35;101729.02;107601;1251;107574;-71
2024/03/11 10:32:00;;;;;;;31.30;15.00;;;;;;;7.79;78.43;101723.73;107603;1254;97692;-68
2024/03/11 10:34:31;;;;;;;25.40;14.30;;;;;;;7.79;78.61;101720.69;107634;1251;98881;-70
2024/03/11 10:37:00;;;;;;;28.00;15.20;;;;;;;7.79;78.24;101722.64;107577;1255;111358;-68
2024/03/11 10:39:37;;;;;;;30.70;16.80;;;;;;;7.77;78.18;101723.32;107668;1250;107708;-67
2024/03/11 10:42:12;;;;;;;27.90;16.20;;;;;;;7.71;78.01;101720.43;107692;1251;107652;-67
2024/03/11 10:44:41;;;;;;;27.30;17.10;;;;;;;7.68;77.79;101717.95;107605;1251;97830;-70
2024/03/11 10:47:15;;;;;;;35.10;17.60;;;;;;;7.65;78.14;101716.70;107594;1251;97916;-67
2024/03/11 10:49:47;;;;;;;28.50;16.30;;;;;;;7.65;79.03;101714.77;107648;1250;111945;-69
2024/03/11 10:52:20;;;;;;;29.20;16.20;;;;;;;7.68;79.61;101717.26;107617;1251;108892;-68
2024/03/11 10:54:57;;;;;;;26.80;16.00;;;;;;;7.72;79.51;101712.00;107586;1251;108557;-67
2024/03/11 10:57:47;;;;;;;31.30;16.10;;;;;;;7.78;79.77;101711.27;107623;1251;97751;-67
2024/03/11 11:02:59;;;;;;;29.10;15.90;;;;;;;7.83;79.55;101703.09;107640;1251;111320;-66
2024/03/11 11:05:32;;;;;;;27.90;15.90;;;;;;;7.84;79.24;101705.38;107632;1254;107806;-70
2024/03/11 11:08:03;;;;;;;25.40;15.20;;;;;;;7.82;78.90;101705.33;107528;1251;108387;-68
2024/03/11 11:10:35;;;;;;;26.00;15.30;;;;;;;7.79;79.01;101703.37;107589;1251;97828;-69
2024/03/11 11:13:06;;;;;;;27.50;16.00;;;;;;;7.71;79.25;101697.78;107584;1251;97815;-69
2024/03/11 11:15:36;;;;;;;27.60;15.80;;;;;;;7.65;79.21;101694.79;107738;1251;112605;-68
2024/03/11 11:18:13;;;;;;;25.30;13.90;;;;;;;7.62;79.68;101693.16;107596;1250;107854;-68
2024/03/11 11:20:47;;;;;;;25.70;14.50;;;;;;;7.57;80.02;101690.94;107549;1250;107782;-68